sensor_id;sensor_type;location;lat;lon;timestamp;pressure;altitude;pressure_sealevel;temperature;humidity
19447;BME280;9862;49.462;11.054;2022-12-18T00:01:57;99378.44;;;-2.31;100.00
19447;BME280;9862;49.462;11.054;2022-12-18T00:04:25;99384.59;;;-2.32;100.00
19447;BME280;9862;49.462;11.054;2022-12-18T00:06:52;99393.03;;;-2.56;100.00
19447;BME280;9862;49.462;11.054;2022-12-18T00:09:19;99393.13;;;-2.72;100.00
19447;BME280;9862;49.462;11.054;2022-12-18T00:11:46;99395.97;;;-2.91;100.00
19447;BME280;9862;49.462;11.054;2022-12-18T00:14:14;99390.31;;;-2.83;100.00
19447;BME280;9862;49.462;11.054;2022-12-18T00:16:43;99378.22;;;-2.70;100.00
19447;BME280;9862;49.462;11.054;2022-12-18T00:19:10;99373.50;;;-2.64;100.00
19447;BME280;9862;49.462;11.054;2022-12-18T00:21:37;99373.94;;;-2.71;100.00
19447;BME280;9862;49.462;11.054;2022-12-18T00:24:04;99375.72;;;-2.72;100.00
19447;BME280;9862;49.462;11.054;2022-12-18T00:26:32;99374.91;;;-2.58;100.00
19447;BME280;9862;49.462;11.054;2022-12-18T00:29:00;99370.13;;;-2.51;100.00
19447;BME280;9862;49.462;11.054;2022-12-18T00:31:28;99379.66;;;-2.50;100.00
19447;BME280;9862;49.462;11.054;2022-12-18T00:33:56;99370.81;;;-2.48;100.00
19447;BME280;9862;49.462;11.054;2022-12-18T00:36:24;99376.94;;;-2.35;100.00
19447;BME280;9862;49.462;11.054;2022-12-18T00:38:53;99368.19;;;-2.34;100.00
19447;BME280;9862;49.462;11.054;2022-12-18T00:41:20;99384.09;;;-2.67;100.00
19447;BME280;9862;49.462;11.054;2022-12-18T00:44:00;99388.84;;;-2.73;100.00
19447;BME280;9862;49.462;11.054;2022-12-18T00:46:29;99379.16;;;-2.71;100.00
19447;BME280;9862;49.462;11.054;2022-12-18T00:48:56;99381.50;;;-2.67;100.00
19447;BME280;9862;49.462;11.054;2022-12-18T00:51:22;99383.09;;;-2.50;100.00
19447;BME280;9862;49.462;11.054;2022-12-18T00:53:49;99385.16;;;-2.41;100.00
19447;BME280;9862;49.462;11.054;2022-12-18T00:56:15;99382.16;;;-2.49;100.00
19447;BME280;9862;49.462;11.054;2022-12-18T00:58:42;99378.53;;;-2.61;100.00
19447;BME280;9862;49.462;11.054;2022-12-18T01:01:08;99373.59;;;-2.65;100.00
19447;BME280;9862;49.462;11.054;2022-12-18T01:03:36;99371.56;;;-2.60;100.00
19447;BME280;9862;49.462;11.054;2022-12-18T01:06:06;99387.00;;;-2.57;100.00
19447;BME280;9862;49.462;11.054;2022-12-18T01:08:32;99397.50;;;-2.44;100.00
19447;BME280;9862;49.462;11.054;2022-12-18T01:10:59;99405.03;;;-2.68;100.00
19447;BME280;9862;49.462;11.054;2022-12-18T01:13:26;99403.44;;;-2.85;100.00
19447;BME280;9862;49.462;11.054;2022-12-18T01:15:53;99413.84;;;-2.85;100.00
19447;BME280;9862;49.462;11.054;2022-12-18T01:18:19;99409.88;;;-2.76;100.00
19447;BME280;9862;49.462;11.054;2022-12-18T01:20:47;99409.47;;;-2.70;100.00
19447;BME280;9862;49.462;11.054;2022-12-18T01:23:14;99408.97;;;-2.47;100.00
19447;BME280;9862;49.462;11.054;2022-12-18T01:25:40;99414.00;;;-2.58;100.00
19447;BME280;9862;49.462;11.054;2022-12-18T01:28:07;99409.22;;;-2.66;100.00
19447;BME280;9862;49.462;11.054;2022-12-18T01:30:33;99419.75;;;-2.67;100.00
19447;BME280;9862;49.462;11.054;2022-12-18T01:33:00;99417.13;;;-2.67;100.00
19447;BME280;9862;49.462;11.054;2022-12-18T01:35:27;99420.69;;;-2.68;100.00
19447;BME280;9862;49.462;11.054;2022-12-18T01:37:55;99424.03;;;-2.66;100.00
19447;BME280;9862;49.462;11.054;2022-12-18T01:40:22;99430.81;;;-2.64;100.00
19447;BME280;9862;49.462;11.054;2022-12-18T01:42:51;99429.13;;;-2.65;100.00
19447;BME280;9862;49.462;11.054;2022-12-18T01:45:25;99423.66;;;-2.60;100.00
19447;BME280;9862;49.462;11.054;2022-12-18T01:47:53;99425.91;;;-2.54;100.00
19447;BME280;9862;49.462;11.054;2022-12-18T01:50:23;99423.88;;;-2.49;100.00
19447;BME280;9862;49.462;11.054;2022-12-18T01:52:53;99426.28;;;-2.46;100.00
19447;BME280;9862;49.462;11.054;2022-12-18T01:55:24;99431.97;;;-2.39;100.00
19447;BME280;9862;49.462;11.054;2022-12-18T01:57:52;99437.28;;;-2.26;100.00
19447;BME280;9862;49.462;11.054;2022-12-18T02:00:21;99428.91;;;-2.32;100.00
19447;BME280;9862;49.462;11.054;2022-12-18T02:02:48;99434.28;;;-2.35;100.00
19447;BME280;9862;49.462;11.054;2022-12-18T02:05:17;99430.75;;;-2.34;100.00
19447;BME280;9862;49.462;11.054;2022-12-18T02:07:51;99422.00;;;-2.33;100.00
19447;BME280;9862;49.462;11.054;2022-12-18T02:10:27;99428.72;;;-2.28;100.00
19447;BME280;9862;49.462;11.054;2022-12-18T02:13:00;99441.16;;;-2.34;100.00
19447;BME280;9862;49.462;11.054;2022-12-18T02:15:34;99442.19;;;-2.36;100.00
19447;BME280;9862;49.462;11.054;2022-12-18T02:18:06;99443.97;;;-2.37;100.00
19447;BME280;9862;49.462;11.054;2022-12-18T02:20:36;99441.66;;;-2.27;100.00
19447;BME280;9862;49.462;11.054;2022-12-18T02:23:12;99446.19;;;-2.45;100.00
19447;BME280;9862;49.462;11.054;2022-12-18T02:26:02;99443.00;;;-2.64;100.00
19447;BME280;9862;49.462;11.054;2022-12-18T02:28:35;99449.06;;;-2.64;100.00
19447;BME280;9862;49.462;11.054;2022-12-18T02:31:07;99438.16;;;-2.70;100.00
19447;BME280;9862;49.462;11.054;2022-12-18T02:33:35;99444.03;;;-2.67;100.00
19447;BME280;9862;49.462;11.054;2022-12-18T02:36:03;99441.06;;;-2.91;100.00
19447;BME280;9862;49.462;11.054;2022-12-18T02:38:30;99436.81;;;-2.92;100.00
19447;BME280;9862;49.462;11.054;2022-12-18T02:40:59;99438.88;;;-2.82;100.00
19447;BME280;9862;49.462;11.054;2022-12-18T02:43:26;99439.06;;;-2.85;100.00
19447;BME280;9862;49.462;11.054;2022-12-18T02:45:55;99441.88;;;-2.74;100.00
19447;BME280;9862;49.462;11.054;2022-12-18T02:48:24;99454.75;;;-2.57;100.00
19447;BME280;9862;49.462;11.054;2022-12-18T02:51:03;99460.69;;;-2.55;100.00
19447;BME280;9862;49.462;11.054;2022-12-18T02:53:38;99468.22;;;-2.65;100.00
19447;BME280;9862;49.462;11.054;2022-12-18T02:56:11;99474.09;;;-2.61;100.00
19447;BME280;9862;49.462;11.054;2022-12-18T02:58:46;99468.72;;;-2.58;100.00
19447;BME280;9862;49.462;11.054;2022-12-18T03:01:21;99468.28;;;-2.36;100.00
19447;BME280;9862;49.462;11.054;2022-12-18T03:03:52;99454.00;;;-2.45;100.00
19447;BME280;9862;49.462;11.054;2022-12-18T03:06:23;99461.09;;;-2.47;100.00
19447;BME280;9862;49.462;11.054;2022-12-18T03:08:56;99445.00;;;-2.39;100.00
19447;BME280;9862;49.462;11.054;2022-12-18T03:11:27;99439.13;;;-2.28;100.00
19447;BME280;9862;49.462;11.054;2022-12-18T03:14:09;99435.78;;;-2.16;100.00
19447;BME280;9862;49.462;11.054;2022-12-18T03:16:38;99431.88;;;-2.09;100.00
19447;BME280;9862;49.462;11.054;2022-12-18T03:19:08;99424.69;;;-2.06;100.00
19447;BME280;9862;49.462;11.054;2022-12-18T03:21:42;99427.66;;;-1.97;100.00
19447;BME280;9862;49.462;11.054;2022-12-18T03:24:11;99429.41;;;-1.84;100.00
19447;BME280;9862;49.462;11.054;2022-12-18T03:26:42;99435.00;;;-2.04;100.00
19447;BME280;9862;49.462;11.054;2022-12-18T03:29:14;99450.75;;;-2.06;100.00
19447;BME280;9862;49.462;11.054;2022-12-18T03:31:49;99449.47;;;-1.98;100.00
19447;BME280;9862;49.462;11.054;2022-12-18T03:34:23;99445.00;;;-2.11;100.00
19447;BME280;9862;49.462;11.054;2022-12-18T03:36:51;99456.84;;;-2.19;100.00
19447;BME280;9862;49.462;11.054;2022-12-18T03:39:18;99449.75;;;-2.32;100.00
19447;BME280;9862;49.462;11.054;2022-12-18T03:41:51;99450.41;;;-2.28;100.00
19447;BME280;9862;49.462;11.054;2022-12-18T03:44:21;99449.00;;;-2.19;100.00
19447;BME280;9862;49.462;11.054;2022-12-18T03:46:58;99450.97;;;-2.09;100.00
19447;BME280;9862;49.462;11.054;2022-12-18T03:49:34;99452.16;;;-2.00;100.00
19447;BME280;9862;49.462;11.054;2022-12-18T03:52:03;99445.44;;;-1.90;100.00
19447;BME280;9862;49.462;11.054;2022-12-18T03:54:31;99441.44;;;-1.81;100.00
19447;BME280;9862;49.462;11.054;2022-12-18T03:57:06;99443.56;;;-1.74;100.00
19447;BME280;9862;49.462;11.054;2022-12-18T03:59:34;99446.44;;;-1.64;100.00
19447;BME280;9862;49.462;11.054;2022-12-18T04:02:03;99448.75;;;-1.59;100.00
19447;BME280;9862;49.462;11.054;2022-12-18T04:04:33;99459.09;;;-1.58;100.00
19447;BME280;9862;49.462;11.054;2022-12-18T04:07:01;99453.41;;;-1.64;100.00
19447;BME280;9862;49.462;11.054;2022-12-18T04:09:30;99461.78;;;-1.59;100.00
19447;BME280;9862;49.462;11.054;2022-12-18T04:11:58;99468.78;;;-1.60;100.00
19447;BME280;9862;49.462;11.054;2022-12-18T04:14:26;99475.03;;;-1.62;100.00
19447;BME280;9862;49.462;11.054;2022-12-18T04:16:52;99471.66;;;-1.64;100.00
19447;BME280;9862;49.462;11.054;2022-12-18T04:19:19;99466.72;;;-1.55;100.00
19447;BME280;9862;49.462;11.054;2022-12-18T04:21:45;99449.72;;;-1.48;100.00
19447;BME280;9862;49.462;11.054;2022-12-18T04:24:12;99460.53;;;-1.39;100.00
19447;BME280;9862;49.462;11.054;2022-12-18T04:26:38;99464.72;;;-1.37;100.00
19447;BME280;9862;49.462;11.054;2022-12-18T04:29:05;99465.25;;;-1.32;100.00
19447;BME280;9862;49.462;11.054;2022-12-18T04:31:33;99464.69;;;-1.23;100.00
19447;BME280;9862;49.462;11.054;2022-12-18T04:34:00;99467.91;;;-1.19;100.00
19447;BME280;9862;49.462;11.054;2022-12-18T04:36:26;99470.25;;;-1.14;100.00
19447;BME280;9862;49.462;11.054;2022-12-18T04:38:53;99476.72;;;-1.07;100.00
19447;BME280;9862;49.462;11.054;2022-12-18T04:41:19;99472.28;;;-1.05;100.00
19447;BME280;9862;49.462;11.054;2022-12-18T04:43:46;99474.13;;;-1.07;100.00
19447;BME280;9862;49.462;11.054;2022-12-18T04:46:13;99466.50;;;-1.10;100.00
19447;BME280;9862;49.462;11.054;2022-12-18T04:48:41;99468.59;;;-1.03;100.00
19447;BME280;9862;49.462;11.054;2022-12-18T04:51:07;99466.25;;;-1.20;100.00
19447;BME280;9862;49.462;11.054;2022-12-18T04:53:34;99473.56;;;-1.25;100.00
19447;BME280;9862;49.462;11.054;2022-12-18T04:56:05;99474.97;;;-1.34;100.00
19447;BME280;9862;49.462;11.054;2022-12-18T04:58:32;99472.91;;;-1.29;100.00
19447;BME280;9862;49.462;11.054;2022-12-18T05:00:59;99460.19;;;-1.21;100.00
19447;BME280;9862;49.462;11.054;2022-12-18T05:03:26;99459.81;;;-1.14;100.00
19447;BME280;9862;49.462;11.054;2022-12-18T05:05:54;99466.28;;;-1.07;100.00
19447;BME280;9862;49.462;11.054;2022-12-18T05:08:20;99464.00;;;-0.99;100.00
19447;BME280;9862;49.462;11.054;2022-12-18T05:10:47;99470.06;;;-0.99;100.00
19447;BME280;9862;49.462;11.054;2022-12-18T05:13:14;99455.06;;;-0.95;100.00
19447;BME280;9862;49.462;11.054;2022-12-18T05:15:40;99448.56;;;-0.90;100.00
19447;BME280;9862;49.462;11.054;2022-12-18T05:18:08;99448.06;;;-0.82;100.00
19447;BME280;9862;49.462;11.054;2022-12-18T05:20:34;99457.56;;;-0.81;100.00
19447;BME280;9862;49.462;11.054;2022-12-18T05:23:02;99457.91;;;-0.85;100.00
19447;BME280;9862;49.462;11.054;2022-12-18T05:25:29;99466.75;;;-0.88;100.00
19447;BME280;9862;49.462;11.054;2022-12-18T05:27:55;99475.53;;;-0.89;100.00
19447;BME280;9862;49.462;11.054;2022-12-18T05:30:22;99477.13;;;-0.87;100.00
19447;BME280;9862;49.462;11.054;2022-12-18T05:32:48;99477.31;;;-0.90;100.00
19447;BME280;9862;49.462;11.054;2022-12-18T05:35:15;99475.53;;;-0.89;100.00
19447;BME280;9862;49.462;11.054;2022-12-18T05:37:42;99470.31;;;-0.89;100.00
19447;BME280;9862;49.462;11.054;2022-12-18T05:40:11;99471.78;;;-0.85;100.00
19447;BME280;9862;49.462;11.054;2022-12-18T05:42:38;99471.78;;;-0.85;100.00
19447;BME280;9862;49.462;11.054;2022-12-18T05:45:05;99464.78;;;-0.84;100.00
19447;BME280;9862;49.462;11.054;2022-12-18T05:47:32;99460.78;;;-0.90;100.00
19447;BME280;9862;49.462;11.054;2022-12-18T05:49:59;99462.13;;;-0.97;100.00
19447;BME280;9862;49.462;11.054;2022-12-18T05:52:25;99473.66;;;-0.87;100.00
19447;BME280;9862;49.462;11.054;2022-12-18T05:54:52;99476.13;;;-0.98;100.00
19447;BME280;9862;49.462;11.054;2022-12-18T05:57:20;99479.69;;;-0.99;100.00
19447;BME280;9862;49.462;11.054;2022-12-18T05:59:46;99479.16;;;-1.04;100.00
19447;BME280;9862;49.462;11.054;2022-12-18T06:02:13;99478.94;;;-1.01;100.00
19447;BME280;9862;49.462;11.054;2022-12-18T06:04:39;99481.25;;;-0.97;100.00
19447;BME280;9862;49.462;11.054;2022-12-18T06:07:06;99482.44;;;-0.88;100.00
19447;BME280;9862;49.462;11.054;2022-12-18T06:09:33;99476.41;;;-0.76;100.00
19447;BME280;9862;49.462;11.054;2022-12-18T06:11:59;99487.28;;;-0.69;100.00
19447;BME280;9862;49.462;11.054;2022-12-18T06:14:27;99493.31;;;-0.81;100.00
19447;BME280;9862;49.462;11.054;2022-12-18T06:16:54;99510.00;;;-0.97;100.00
19447;BME280;9862;49.462;11.054;2022-12-18T06:19:20;99508.84;;;-1.05;100.00
19447;BME280;9862;49.462;11.054;2022-12-18T06:21:47;99496.38;;;-1.14;100.00
19447;BME280;9862;49.462;11.054;2022-12-18T06:24:14;99494.94;;;-1.06;100.00
19447;BME280;9862;49.462;11.054;2022-12-18T06:26:41;99488.66;;;-1.03;100.00
19447;BME280;9862;49.462;11.054;2022-12-18T06:29:08;99492.00;;;-1.01;100.00
19447;BME280;9862;49.462;11.054;2022-12-18T06:31:36;99492.47;;;-0.95;100.00
19447;BME280;9862;49.462;11.054;2022-12-18T06:34:03;99497.16;;;-0.87;100.00
19447;BME280;9862;49.462;11.054;2022-12-18T06:36:30;99502.59;;;-0.90;100.00
19447;BME280;9862;49.462;11.054;2022-12-18T06:38:57;99506.03;;;-1.02;100.00
19447;BME280;9862;49.462;11.054;2022-12-18T06:41:23;99512.34;;;-1.06;100.00
19447;BME280;9862;49.462;11.054;2022-12-18T06:43:50;99513.03;;;-1.03;100.00
19447;BME280;9862;49.462;11.054;2022-12-18T06:46:17;99505.28;;;-1.04;100.00
19447;BME280;9862;49.462;11.054;2022-12-18T06:48:48;99503.50;;;-1.04;100.00
19447;BME280;9862;49.462;11.054;2022-12-18T06:51:19;99510.31;;;-1.01;100.00
19447;BME280;9862;49.462;11.054;2022-12-18T06:53:46;99512.91;;;-1.01;100.00
19447;BME280;9862;49.462;11.054;2022-12-18T06:56:12;99513.84;;;-1.02;100.00
19447;BME280;9862;49.462;11.054;2022-12-18T06:58:39;99510.19;;;-1.00;100.00
19447;BME280;9862;49.462;11.054;2022-12-18T07:01:07;99513.53;;;-0.98;100.00
19447;BME280;9862;49.462;11.054;2022-12-18T07:03:35;99505.44;;;-0.93;100.00
19447;BME280;9862;49.462;11.054;2022-12-18T07:06:03;99514.59;;;-1.00;100.00
19447;BME280;9862;49.462;11.054;2022-12-18T07:08:30;99527.97;;;-1.05;100.00
19447;BME280;9862;49.462;11.054;2022-12-18T07:10:57;99518.69;;;-0.96;100.00
19447;BME280;9862;49.462;11.054;2022-12-18T07:13:23;99514.72;;;-0.89;100.00
19447;BME280;9862;49.462;11.054;2022-12-18T07:15:50;99515.22;;;-0.97;100.00
19447;BME280;9862;49.462;11.054;2022-12-18T07:18:16;99515.47;;;-0.87;100.00
19447;BME280;9862;49.462;11.054;2022-12-18T07:20:43;99507.00;;;-0.91;100.00
19447;BME280;9862;49.462;11.054;2022-12-18T07:23:11;99491.63;;;-0.95;100.00
19447;BME280;9862;49.462;11.054;2022-12-18T07:25:37;99499.78;;;-0.87;100.00
19447;BME280;9862;49.462;11.054;2022-12-18T07:28:05;99501.38;;;-0.84;100.00
19447;BME280;9862;49.462;11.054;2022-12-18T07:30:31;99499.28;;;-0.79;100.00
19447;BME280;9862;49.462;11.054;2022-12-18T07:32:58;99502.34;;;-0.73;100.00
19447;BME280;9862;49.462;11.054;2022-12-18T07:35:24;99508.63;;;-0.75;100.00
19447;BME280;9862;49.462;11.054;2022-12-18T07:37:51;99514.88;;;-0.78;100.00
19447;BME280;9862;49.462;11.054;2022-12-18T07:40:19;99525.31;;;-0.78;100.00
19447;BME280;9862;49.462;11.054;2022-12-18T07:42:46;99523.25;;;-0.73;100.00
19447;BME280;9862;49.462;11.054;2022-12-18T07:45:12;99520.31;;;-0.68;100.00
19447;BME280;9862;49.462;11.054;2022-12-18T07:47:39;99528.50;;;-0.60;100.00
19447;BME280;9862;49.462;11.054;2022-12-18T07:50:07;99534.19;;;-0.53;100.00
19447;BME280;9862;49.462;11.054;2022-12-18T07:52:34;99547.69;;;-0.47;100.00
19447;BME280;9862;49.462;11.054;2022-12-18T07:55:01;99547.09;;;-0.38;100.00
19447;BME280;9862;49.462;11.054;2022-12-18T07:57:29;99536.91;;;-0.30;100.00
19447;BME280;9862;49.462;11.054;2022-12-18T07:59:56;99541.75;;;-0.23;100.00
19447;BME280;9862;49.462;11.054;2022-12-18T08:02:22;99544.06;;;-0.19;100.00
19447;BME280;9862;49.462;11.054;2022-12-18T08:04:49;99535.06;;;-0.15;100.00
19447;BME280;9862;49.462;11.054;2022-12-18T08:07:16;99536.75;;;-0.14;100.00
19447;BME280;9862;49.462;11.054;2022-12-18T08:09:42;99541.75;;;-0.11;100.00
19447;BME280;9862;49.462;11.054;2022-12-18T08:12:09;99547.09;;;-0.12;100.00
19447;BME280;9862;49.462;11.054;2022-12-18T08:14:37;99545.31;;;-0.12;100.00
19447;BME280;9862;49.462;11.054;2022-12-18T08:17:03;99541.75;;;-0.11;100.00
19447;BME280;9862;49.462;11.054;2022-12-18T08:19:30;99551.81;;;-0.05;100.00
19447;BME280;9862;49.462;11.054;2022-12-18T08:21:56;99549.53;;;0.04;100.00
19447;BME280;9862;49.462;11.054;2022-12-18T08:24:23;99540.94;;;0.14;100.00
19447;BME280;9862;49.462;11.054;2022-12-18T08:26:50;99548.06;;;0.12;100.00
19447;BME280;9862;49.462;11.054;2022-12-18T08:29:17;99536.94;;;0.09;100.00
19447;BME280;9862;49.462;11.054;2022-12-18T08:31:45;99541.66;;;0.16;100.00
19447;BME280;9862;49.462;11.054;2022-12-18T08:34:11;99545.03;;;-0.07;100.00
19447;BME280;9862;49.462;11.054;2022-12-18T08:36:38;99543.31;;;-0.34;100.00
19447;BME280;9862;49.462;11.054;2022-12-18T08:39:05;99554.59;;;-0.46;100.00
19447;BME280;9862;49.462;11.054;2022-12-18T08:41:31;99548.19;;;-0.54;100.00
19447;BME280;9862;49.462;11.054;2022-12-18T08:43:58;99544.84;;;-0.56;100.00
19447;BME280;9862;49.462;11.054;2022-12-18T08:46:43;99559.69;;;-0.57;100.00
19447;BME280;9862;49.462;11.054;2022-12-18T08:49:11;99559.16;;;-0.49;100.00
19447;BME280;9862;49.462;11.054;2022-12-18T08:51:39;99556.56;;;-0.49;100.00
19447;BME280;9862;49.462;11.054;2022-12-18T08:54:06;99553.00;;;-0.48;100.00
19447;BME280;9862;49.462;11.054;2022-12-18T08:56:33;99545.47;;;-0.53;100.00
19447;BME280;9862;49.462;11.054;2022-12-18T08:58:59;99542.53;;;-0.48;100.00
19447;BME280;9862;49.462;11.054;2022-12-18T09:01:26;99541.41;;;-0.44;100.00
19447;BME280;9862;49.462;11.054;2022-12-18T09:03:53;99540.47;;;-0.31;100.00
19447;BME280;9862;49.462;11.054;2022-12-18T09:06:22;99536.00;;;-0.28;100.00
19447;BME280;9862;49.462;11.054;2022-12-18T09:08:49;99536.19;;;-0.32;100.00
19447;BME280;9862;49.462;11.054;2022-12-18T09:11:20;99541.84;;;-0.38;100.00
19447;BME280;9862;49.462;11.054;2022-12-18T09:13:47;99544.66;;;-0.41;100.00
19447;BME280;9862;49.462;11.054;2022-12-18T09:16:14;99540.69;;;-0.34;100.00
19447;BME280;9862;49.462;11.054;2022-12-18T09:18:41;99540.91;;;-0.24;100.00
19447;BME280;9862;49.462;11.054;2022-12-18T09:21:09;99536.53;;;-0.11;100.00
19447;BME280;9862;49.462;11.054;2022-12-18T09:23:37;99532.78;;;-0.07;100.00
19447;BME280;9862;49.462;11.054;2022-12-18T09:26:04;99540.94;;;0.02;100.00
19447;BME280;9862;49.462;11.054;2022-12-18T09:28:31;99537.88;;;0.08;100.00
19447;BME280;9862;49.462;11.054;2022-12-18T09:30:58;99533.91;;;0.15;100.00
19447;BME280;9862;49.462;11.054;2022-12-18T09:33:24;99531.28;;;0.15;100.00
19447;BME280;9862;49.462;11.054;2022-12-18T09:35:51;99529.00;;;0.23;100.00
19447;BME280;9862;49.462;11.054;2022-12-18T09:38:18;99530.13;;;0.19;100.00
19447;BME280;9862;49.462;11.054;2022-12-18T09:40:48;99526.06;;;0.15;100.00
19447;BME280;9862;49.462;11.054;2022-12-18T09:43:18;99528.91;;;0.12;100.00
19447;BME280;9862;49.462;11.054;2022-12-18T09:45:47;99518.53;;;0.23;100.00
19447;BME280;9862;49.462;11.054;2022-12-18T09:48:19;99516.31;;;0.17;100.00
19447;BME280;9862;49.462;11.054;2022-12-18T09:50:48;99518.22;;;0.15;100.00
19447;BME280;9862;49.462;11.054;2022-12-18T09:53:19;99521.78;;;-0.12;100.00
19447;BME280;9862;49.462;11.054;2022-12-18T09:55:48;99521.88;;;-0.13;100.00
19447;BME280;9862;49.462;11.054;2022-12-18T09:58:20;99523.34;;;0.04;100.00
19447;BME280;9862;49.462;11.054;2022-12-18T10:00:51;99515.81;;;-0.14;100.00
19447;BME280;9862;49.462;11.054;2022-12-18T10:03:17;99526.06;;;-0.36;100.00
19447;BME280;9862;49.462;11.054;2022-12-18T10:05:51;99515.38;;;-0.33;100.00
19447;BME280;9862;49.462;11.054;2022-12-18T10:08:23;99519.34;;;-0.40;100.00
19447;BME280;9862;49.462;11.054;2022-12-18T10:10:58;99520.78;;;-0.49;100.00
19447;BME280;9862;49.462;11.054;2022-12-18T10:13:31;99512.88;;;-0.35;100.00
19447;BME280;9862;49.462;11.054;2022-12-18T10:16:09;99510.97;;;-0.20;100.00
19447;BME280;9862;49.462;11.054;2022-12-18T10:18:53;99493.41;;;0.08;100.00
19447;BME280;9862;49.462;11.054;2022-12-18T10:21:30;99488.13;;;0.33;100.00
19447;BME280;9862;49.462;11.054;2022-12-18T10:24:02;99489.56;;;0.37;100.00
19447;BME280;9862;49.462;11.054;2022-12-18T10:26:37;99484.56;;;0.34;100.00
19447;BME280;9862;49.462;11.054;2022-12-18T10:29:08;99493.59;;;0.30;100.00
19447;BME280;9862;49.462;11.054;2022-12-18T10:31:37;99494.22;;;0.34;100.00
19447;BME280;9862;49.462;11.054;2022-12-18T10:34:03;99490.00;;;0.44;100.00
19447;BME280;9862;49.462;11.054;2022-12-18T10:36:30;99495.84;;;0.47;100.00
19447;BME280;9862;49.462;11.054;2022-12-18T10:39:14;99490.41;;;0.50;100.00
19447;BME280;9862;49.462;11.054;2022-12-18T10:41:42;99492.41;;;0.34;100.00
19447;BME280;9862;49.462;11.054;2022-12-18T10:44:14;99492.84;;;0.41;100.00
19447;BME280;9862;49.462;11.054;2022-12-18T10:46:42;99497.09;;;0.54;100.00
19447;BME280;9862;49.462;11.054;2022-12-18T10:49:19;99506.47;;;0.70;100.00
19447;BME280;9862;49.462;11.054;2022-12-18T10:51:47;99500.59;;;0.79;100.00
19447;BME280;9862;49.462;11.054;2022-12-18T10:54:16;99510.00;;;0.81;100.00
19447;BME280;9862;49.462;11.054;2022-12-18T10:56:45;99503.22;;;0.79;100.00
19447;BME280;9862;49.462;11.054;2022-12-18T10:59:12;99501.59;;;0.89;100.00
19447;BME280;9862;49.462;11.054;2022-12-18T11:01:48;99505.03;;;1.13;100.00
19447;BME280;9862;49.462;11.054;2022-12-18T11:04:18;99506.53;;;1.05;100.00
19447;BME280;9862;49.462;11.054;2022-12-18T11:06:54;99501.25;;;1.18;100.00
19447;BME280;9862;49.462;11.054;2022-12-18T11:09:22;99515.53;;;1.13;100.00
19447;BME280;9862;49.462;11.054;2022-12-18T11:11:51;99509.31;;;1.14;100.00
19447;BME280;9862;49.462;11.054;2022-12-18T11:14:22;99496.50;;;1.23;100.00
19447;BME280;9862;49.462;11.054;2022-12-18T11:16:50;99475.47;;;1.35;100.00
19447;BME280;9862;49.462;11.054;2022-12-18T11:19:31;99482.22;;;1.27;100.00
19447;BME280;9862;49.462;11.054;2022-12-18T11:22:00;99487.19;;;1.19;100.00
19447;BME280;9862;49.462;11.054;2022-12-18T11:24:29;99479.81;;;1.24;100.00
19447;BME280;9862;49.462;11.054;2022-12-18T11:27:00;99472.09;;;1.33;100.00
19447;BME280;9862;49.462;11.054;2022-12-18T11:29:36;99469.63;;;1.43;100.00
19447;BME280;9862;49.462;11.054;2022-12-18T11:32:31;99478.00;;;1.48;100.00
19447;BME280;9862;49.462;11.054;2022-12-18T11:35:10;99480.19;;;1.30;100.00
19447;BME280;9862;49.462;11.054;2022-12-18T11:37:40;99475.47;;;1.47;100.00
19447;BME280;9862;49.462;11.054;2022-12-18T11:40:14;99466.03;;;1.44;100.00
19447;BME280;9862;49.462;11.054;2022-12-18T11:42:47;99474.56;;;1.24;100.00
19447;BME280;9862;49.462;11.054;2022-12-18T11:45:29;99468.31;;;1.13;100.00
19447;BME280;9862;49.462;11.054;2022-12-18T11:48:00;99459.97;;;1.08;100.00
19447;BME280;9862;49.462;11.054;2022-12-18T11:50:31;99457.84;;;1.13;100.00
19447;BME280;9862;49.462;11.054;2022-12-18T11:53:00;99450.69;;;1.15;100.00
19447;BME280;9862;49.462;11.054;2022-12-18T11:55:37;99451.66;;;1.14;100.00
19447;BME280;9862;49.462;11.054;2022-12-18T11:58:15;99449.66;;;1.18;100.00
19447;BME280;9862;49.462;11.054;2022-12-18T12:00:49;99435.97;;;1.26;100.00
19447;BME280;9862;49.462;11.054;2022-12-18T12:03:27;99439.34;;;1.39;100.00
19447;BME280;9862;49.462;11.054;2022-12-18T12:06:10;99434.09;;;1.50;100.00
19447;BME280;9862;49.462;11.054;2022-12-18T12:08:54;99432.81;;;1.56;100.00
19447;BME280;9862;49.462;11.054;2022-12-18T12:11:32;99451.53;;;1.51;100.00
19447;BME280;9862;49.462;11.054;2022-12-18T12:14:15;99447.44;;;1.36;100.00
19447;BME280;9862;49.462;11.054;2022-12-18T12:16:49;99444.91;;;1.34;100.00
19447;BME280;9862;49.462;11.054;2022-12-18T12:19:29;99435.63;;;1.41;100.00
19447;BME280;9862;49.462;11.054;2022-12-18T12:22:06;99420.28;;;1.59;100.00
19447;BME280;9862;49.462;11.054;2022-12-18T12:24:46;99425.53;;;1.70;100.00
19447;BME280;9862;49.462;11.054;2022-12-18T12:27:22;99417.91;;;1.79;100.00
19447;BME280;9862;49.462;11.054;2022-12-18T12:30:02;99420.06;;;1.73;100.00
19447;BME280;9862;49.462;11.054;2022-12-18T12:32:42;99421.50;;;1.55;100.00
19447;BME280;9862;49.462;11.054;2022-12-18T12:35:24;99420.03;;;1.51;100.00
19447;BME280;9862;49.462;11.054;2022-12-18T12:38:02;99432.44;;;1.38;100.00
19447;BME280;9862;49.462;11.054;2022-12-18T12:40:33;99433.38;;;1.37;100.00
19447;BME280;9862;49.462;11.054;2022-12-18T12:43:03;99425.22;;;1.18;100.00
19447;BME280;9862;49.462;11.054;2022-12-18T12:45:44;99421.34;;;0.99;100.00
19447;BME280;9862;49.462;11.054;2022-12-18T12:48:18;99424.69;;;1.01;100.00
19447;BME280;9862;49.462;11.054;2022-12-18T12:50:47;99423.72;;;1.02;100.00
19447;BME280;9862;49.462;11.054;2022-12-18T12:53:22;99423.44;;;1.18;100.00
19447;BME280;9862;49.462;11.054;2022-12-18T12:55:50;99420.16;;;1.38;100.00
19447;BME280;9862;49.462;11.054;2022-12-18T12:58:25;99407.88;;;1.39;100.00
19447;BME280;9862;49.462;11.054;2022-12-18T13:01:04;99404.53;;;1.48;100.00
19447;BME280;9862;49.462;11.054;2022-12-18T13:03:42;99400.25;;;1.58;100.00
19447;BME280;9862;49.462;11.054;2022-12-18T13:06:15;99413.84;;;1.63;100.00